AAH211 PHNG-PHBK
Flight info
| Callsign | AAH211 |
|---|---|
| Flight time | 0h 29m |
| Altitude | 20000 |
| Route | NGF6 SOK |
| Aircraft | B736/M-SDE2E3FGHIRWXY/LB1 |
Departure
| Time | 2026-04-12 14:27 |
|---|---|
| Airport | Kaneohe Bay MCAS (Marion E. Carl Field) Airport (PHNG) |
Arrival
| Time | 2026-04-12 14:56 |
|---|---|
| Airport | Barking Sands Airport (PHBK) |
| Time | Latitude | Longitude | Altitude | Speed | Heading |
|---|---|---|---|---|---|
| 2026-04-12 14:04 | 21.44542 | -157.77194 | 31 ft | 0 kts | 243° |
| 2026-04-12 14:24 | 21.44541 | -157.77196 | 23 ft | 2 kts | 243° |
| 2026-04-12 14:24 | 21.44546 | -157.77233 | 22 ft | 7 kts | 318° |
| 2026-04-12 14:25 | 21.44586 | -157.77280 | 22 ft | 10 kts | 268° |
| 2026-04-12 14:25 | 21.44555 | -157.77351 | 24 ft | 11 kts | 242° |
| 2026-04-12 14:25 | 21.44506 | -157.77421 | 23 ft | 12 kts | 230° |
| 2026-04-12 14:25 | 21.44450 | -157.77492 | 22 ft | 12 kts | 230° |
| 2026-04-12 14:26 | 21.44398 | -157.77558 | 21 ft | 7 kts | 230° |
| 2026-04-12 14:26 | 21.44373 | -157.77604 | 21 ft | 7 kts | 259° |
| 2026-04-12 14:26 | 21.44383 | -157.77654 | 21 ft | 8 kts | 347° |
| 2026-04-12 14:26 | 21.44437 | -157.77618 | 21 ft | 15 kts | 47° |
| 2026-04-12 14:27 | 21.44688 | -157.77281 | 24 ft | 103 kts | 51° |
| 2026-04-12 14:27 | 21.45295 | -157.76474 | 183 ft | 162 kts | 51° |
| 2026-04-12 14:27 | 21.46004 | -157.75591 | 1282 ft | 148 kts | 36° |
| 2026-04-12 14:27 | 21.47073 | -157.75260 | 1765 ft | 186 kts | 353° |
| 2026-04-12 14:28 | 21.48446 | -157.75633 | 2128 ft | 223 kts | 345° |
| 2026-04-12 14:28 | 21.50074 | -157.76051 | 2465 ft | 257 kts | 346° |
| 2026-04-12 14:28 | 21.51866 | -157.76470 | 3382 ft | 267 kts | 347° |
| 2026-04-12 14:28 | 21.53704 | -157.76878 | 4531 ft | 272 kts | 347° |
| 2026-04-12 14:29 | 21.55567 | -157.77277 | 5543 ft | 280 kts | 347° |
| 2026-04-12 14:29 | 21.57528 | -157.77686 | 6611 ft | 286 kts | 347° |
| 2026-04-12 14:29 | 21.59470 | -157.78082 | 7641 ft | 289 kts | 347° |
| 2026-04-12 14:29 | 21.61457 | -157.78483 | 8734 ft | 291 kts | 347° |
| 2026-04-12 14:30 | 21.63459 | -157.78884 | 9797 ft | 295 kts | 346° |
| 2026-04-12 14:30 | 21.65501 | -157.79293 | 10620 ft | 306 kts | 346° |
| 2026-04-12 14:30 | 21.67690 | -157.79733 | 10887 ft | 336 kts | 346° |
| 2026-04-12 14:30 | 21.70082 | -157.80211 | 11197 ft | 361 kts | 347° |
| 2026-04-12 14:31 | 21.72592 | -157.80708 | 11857 ft | 371 kts | 347° |
| 2026-04-12 14:31 | 21.75148 | -157.81213 | 12683 ft | 375 kts | 347° |
| 2026-04-12 14:31 | 21.77733 | -157.81725 | 13567 ft | 379 kts | 347° |
| 2026-04-12 14:31 | 21.80292 | -157.82426 | 14291 ft | 380 kts | 334° |
| 2026-04-12 14:32 | 21.82486 | -157.83986 | 14971 ft | 378 kts | 313° |
| 2026-04-12 14:32 | 21.84030 | -157.86253 | 15702 ft | 375 kts | 294° |
| 2026-04-12 14:32 | 21.84891 | -157.88851 | 16401 ft | 374 kts | 278° |
| 2026-04-12 14:32 | 21.85140 | -157.91642 | 17103 ft | 376 kts | 271° |
| 2026-04-12 14:33 | 21.85242 | -157.94472 | 17779 ft | 380 kts | 269° |
| 2026-04-12 14:33 | 21.85311 | -157.97337 | 18428 ft | 384 kts | 269° |
| 2026-04-12 14:33 | 21.85378 | -158.00220 | 19039 ft | 387 kts | 269° |
| 2026-04-12 14:33 | 21.85454 | -158.03114 | 19679 ft | 388 kts | 269° |
| 2026-04-12 14:34 | 21.85539 | -158.06022 | 20031 ft | 389 kts | 269° |
| 2026-04-12 14:34 | 21.85631 | -158.08945 | 20092 ft | 392 kts | 269° |
| 2026-04-12 14:34 | 21.85729 | -158.11881 | 20047 ft | 391 kts | 269° |
| 2026-04-12 14:34 | 21.85829 | -158.14798 | 20042 ft | 390 kts | 269° |
| 2026-04-12 14:35 | 21.85930 | -158.17721 | 20019 ft | 389 kts | 269° |
| 2026-04-12 14:35 | 21.86031 | -158.20632 | 20016 ft | 390 kts | 269° |
| 2026-04-12 14:35 | 21.86130 | -158.23511 | 20012 ft | 390 kts | 269° |
| 2026-04-12 14:35 | 21.86230 | -158.26466 | 20012 ft | 391 kts | 269° |
| 2026-04-12 14:36 | 21.86328 | -158.29397 | 20024 ft | 404 kts | 269° |
| 2026-04-12 14:36 | 21.86430 | -158.32470 | 19947 ft | 411 kts | 269° |
| 2026-04-12 14:36 | 21.86533 | -158.35495 | 19683 ft | 398 kts | 269° |
| 2026-04-12 14:36 | 21.86635 | -158.38425 | 19442 ft | 384 kts | 269° |
| 2026-04-12 14:37 | 21.86732 | -158.41301 | 19216 ft | 384 kts | 269° |
| 2026-04-12 14:37 | 21.86826 | -158.44165 | 18987 ft | 382 kts | 269° |
| 2026-04-12 14:37 | 21.86920 | -158.47026 | 18765 ft | 382 kts | 269° |
| 2026-04-12 14:37 | 21.87012 | -158.49902 | 18549 ft | 388 kts | 269° |
| 2026-04-12 14:38 | 21.87105 | -158.52783 | 18320 ft | 382 kts | 269° |
| 2026-04-12 14:38 | 21.87198 | -158.55626 | 18061 ft | 377 kts | 269° |
| 2026-04-12 14:38 | 21.87287 | -158.58407 | 17812 ft | 376 kts | 269° |
| 2026-04-12 14:38 | 21.87377 | -158.61217 | 17555 ft | 375 kts | 269° |
| 2026-04-12 14:39 | 21.87466 | -158.64026 | 17304 ft | 374 kts | 269° |
| 2026-04-12 14:39 | 21.87554 | -158.66818 | 17056 ft | 373 kts | 269° |
| 2026-04-12 14:39 | 21.87642 | -158.69609 | 16806 ft | 372 kts | 269° |
| 2026-04-12 14:39 | 21.87729 | -158.72395 | 16557 ft | 371 kts | 269° |
| 2026-04-12 14:40 | 21.87815 | -158.75169 | 16314 ft | 370 kts | 269° |
| 2026-04-12 14:40 | 21.87901 | -158.77936 | 16070 ft | 369 kts | 269° |
| 2026-04-12 14:40 | 21.87986 | -158.80693 | 15825 ft | 368 kts | 269° |
| 2026-04-12 14:40 | 21.88071 | -158.83448 | 15583 ft | 367 kts | 269° |
| 2026-04-12 14:41 | 21.88155 | -158.86191 | 15347 ft | 366 kts | 269° |
| 2026-04-12 14:41 | 21.88237 | -158.88926 | 15109 ft | 364 kts | 269° |
| 2026-04-12 14:41 | 21.88317 | -158.91646 | 14876 ft | 363 kts | 269° |
| 2026-04-12 14:41 | 21.88396 | -158.94363 | 14639 ft | 362 kts | 269° |
| 2026-04-12 14:42 | 21.88474 | -158.97063 | 14407 ft | 360 kts | 269° |
| 2026-04-12 14:42 | 21.88552 | -158.99755 | 14179 ft | 359 kts | 269° |
| 2026-04-12 14:42 | 21.88629 | -159.02439 | 13951 ft | 359 kts | 269° |
| 2026-04-12 14:42 | 21.88706 | -159.05122 | 13705 ft | 357 kts | 269° |
| 2026-04-12 14:43 | 21.88781 | -159.07763 | 13165 ft | 356 kts | 269° |
| 2026-04-12 14:43 | 21.88856 | -159.10376 | 12609 ft | 342 kts | 269° |
| 2026-04-12 14:43 | 21.88928 | -159.12881 | 12086 ft | 328 kts | 269° |
| 2026-04-12 14:43 | 21.88997 | -159.15342 | 11593 ft | 330 kts | 269° |
| 2026-04-12 14:44 | 21.89065 | -159.17836 | 11080 ft | 335 kts | 269° |
| 2026-04-12 14:44 | 21.89133 | -159.20352 | 10751 ft | 335 kts | 269° |
| 2026-04-12 14:44 | 21.89202 | -159.22831 | 10546 ft | 326 kts | 269° |
| 2026-04-12 14:44 | 21.89269 | -159.25232 | 10345 ft | 315 kts | 269° |
| 2026-04-12 14:45 | 21.89333 | -159.27542 | 10199 ft | 303 kts | 269° |
| 2026-04-12 14:45 | 21.89394 | -159.29766 | 10064 ft | 292 kts | 269° |
| 2026-04-12 14:45 | 21.89452 | -159.31892 | 9964 ft | 281 kts | 269° |
| 2026-04-12 14:45 | 21.89507 | -159.33948 | 9691 ft | 275 kts | 269° |
| 2026-04-12 14:46 | 21.89561 | -159.36035 | 9215 ft | 279 kts | 269° |
| 2026-04-12 14:46 | 21.89615 | -159.38133 | 8833 ft | 279 kts | 270° |
| 2026-04-12 14:46 | 21.89670 | -159.40215 | 8496 ft | 277 kts | 270° |
| 2026-04-12 14:46 | 21.89724 | -159.42284 | 8160 ft | 275 kts | 270° |
| 2026-04-12 14:47 | 21.89778 | -159.44339 | 7833 ft | 273 kts | 270° |
| 2026-04-12 14:47 | 21.89832 | -159.46376 | 7514 ft | 271 kts | 270° |
| 2026-04-12 14:47 | 21.89884 | -159.48396 | 7186 ft | 269 kts | 271° |
| 2026-04-12 14:47 | 21.89936 | -159.50414 | 6811 ft | 266 kts | 271° |
| 2026-04-12 14:48 | 21.89984 | -159.52375 | 6472 ft | 258 kts | 270° |
| 2026-04-12 14:48 | 21.89746 | -159.54311 | 5936 ft | 264 kts | 256° |
| 2026-04-12 14:48 | 21.89254 | -159.56226 | 5354 ft | 265 kts | 253° |
| 2026-04-12 14:48 | 21.88731 | -159.58094 | 4985 ft | 256 kts | 253° |
| 2026-04-12 14:49 | 21.88234 | -159.59891 | 4669 ft | 246 kts | 254° |
| 2026-04-12 14:49 | 21.87764 | -159.61623 | 4395 ft | 235 kts | 254° |
| 2026-04-12 14:49 | 21.87327 | -159.63266 | 4147 ft | 227 kts | 254° |
| 2026-04-12 14:49 | 21.86905 | -159.64865 | 3904 ft | 217 kts | 254° |
| 2026-04-12 14:50 | 21.86510 | -159.66376 | 3684 ft | 203 kts | 255° |
| 2026-04-12 14:50 | 21.86144 | -159.67781 | 3610 ft | 187 kts | 255° |
| 2026-04-12 14:50 | 21.85806 | -159.69081 | 3540 ft | 177 kts | 254° |
| 2026-04-12 14:50 | 21.85480 | -159.70334 | 3461 ft | 170 kts | 254° |
| 2026-04-12 14:51 | 21.85272 | -159.71135 | 3416 ft | 166 kts | 254° |
| 2026-04-12 14:51 | 21.84963 | -159.72323 | 3361 ft | 164 kts | 254° |
| 2026-04-12 14:51 | 21.84653 | -159.73513 | 3310 ft | 166 kts | 254° |
| 2026-04-12 14:51 | 21.84345 | -159.74719 | 3230 ft | 168 kts | 258° |
| 2026-04-12 14:52 | 21.84495 | -159.75952 | 3145 ft | 172 kts | 297° |
| 2026-04-12 14:52 | 21.85382 | -159.76823 | 3017 ft | 182 kts | 335° |
| 2026-04-12 14:52 | 21.86659 | -159.76950 | 2861 ft | 186 kts | 357° |
| 2026-04-12 14:52 | 21.87948 | -159.76951 | 2639 ft | 183 kts | 355° |
| 2026-04-12 14:53 | 21.89188 | -159.76957 | 2435 ft | 173 kts | 356° |
| 2026-04-12 14:53 | 21.90373 | -159.76958 | 2196 ft | 167 kts | 357° |
| 2026-04-12 14:53 | 21.91514 | -159.76956 | 1992 ft | 167 kts | 357° |
| 2026-04-12 14:53 | 21.92691 | -159.76952 | 1785 ft | 169 kts | 358° |
| 2026-04-12 14:54 | 21.93826 | -159.76948 | 1546 ft | 157 kts | 357° |
| 2026-04-12 14:54 | 21.94851 | -159.77082 | 1347 ft | 142 kts | 348° |
| 2026-04-12 14:54 | 21.95783 | -159.77263 | 1160 ft | 135 kts | 348° |
| 2026-04-12 14:54 | 21.96726 | -159.77446 | 1013 ft | 140 kts | 348° |
| 2026-04-12 14:55 | 21.97689 | -159.77632 | 829 ft | 140 kts | 350° |
| 2026-04-12 14:55 | 21.98647 | -159.77815 | 637 ft | 140 kts | 349° |
| 2026-04-12 14:55 | 21.99604 | -159.78001 | 462 ft | 140 kts | 350° |
| 2026-04-12 14:55 | 22.00569 | -159.78183 | 259 ft | 141 kts | 350° |
| 2026-04-12 14:56 | 22.01507 | -159.78354 | 48 ft | 130 kts | 349° |
| 2026-04-12 14:56 | 22.02288 | -159.78508 | 23 ft | 86 kts | 350° |
| 2026-04-12 14:56 | 22.02699 | -159.78585 | 26 ft | 44 kts | 350° |
| 2026-04-12 14:56 | 22.02940 | -159.78631 | 29 ft | 27 kts | 350° |
| 2026-04-12 14:57 | 22.03035 | -159.78642 | 28 ft | 10 kts | 14° |
| 2026-04-12 14:57 | 22.03099 | -159.78614 | 27 ft | 10 kts | 22° |
| 2026-04-12 14:57 | 22.03161 | -159.78587 | 26 ft | 9 kts | 22° |
| 2026-04-12 14:57 | 22.03201 | -159.78569 | 26 ft | 9 kts | 22° |
| 2026-04-12 14:58 | 22.03236 | -159.78553 | 28 ft | 9 kts | 23° |
| 2026-04-12 14:58 | 22.03293 | -159.78526 | 29 ft | 9 kts | 23° |
| 2026-04-12 14:58 | 22.03350 | -159.78500 | 30 ft | 9 kts | 22° |
| 2026-04-12 14:59 | 22.03404 | -159.78476 | 26 ft | 8 kts | 22° |
| 2026-04-12 14:59 | 22.03457 | -159.78451 | 26 ft | 8 kts | 24° |
| 2026-04-12 14:59 | 22.03488 | -159.78407 | 28 ft | 8 kts | 91° |
| 2026-04-12 14:59 | 22.03469 | -159.78351 | 28 ft | 8 kts | 111° |
| 2026-04-12 15:00 | 22.03461 | -159.78324 | 28 ft | 3 kts | 104° |
| 2026-04-12 15:00 | 22.03473 | -159.78302 | 30 ft | 4 kts | 20° |
| 2026-04-12 15:00 | 22.03486 | -159.78310 | 28 ft | 1 kts | 309° |
| 2026-04-12 15:01 | 22.03486 | -159.78313 | 27 ft | 0 kts | 295° |
| 2026-04-12 15:01 | 22.03487 | -159.78316 | 27 ft | 0 kts | 296° |